sensor_id;sensor_type;location;lat;lon;timestamp;P1;durP1;ratioP1;P2;durP2;ratioP2
8341;SDS011;4208;49.406;10.788;2022-09-09T00:01:00;3.33;;;1.60;;
8341;SDS011;4208;49.406;10.788;2022-09-09T00:03:39;3.95;;;1.70;;
8341;SDS011;4208;49.406;10.788;2022-09-09T00:06:14;4.38;;;1.80;;
8341;SDS011;4208;49.406;10.788;2022-09-09T00:08:52;3.58;;;1.98;;
8341;SDS011;4208;49.406;10.788;2022-09-09T00:11:30;3.03;;;1.63;;
8341;SDS011;4208;49.406;10.788;2022-09-09T00:14:11;4.35;;;1.67;;
8341;SDS011;4208;49.406;10.788;2022-09-09T00:16:50;4.88;;;1.60;;
8341;SDS011;4208;49.406;10.788;2022-09-09T00:19:23;2.33;;;1.35;;
8341;SDS011;4208;49.406;10.788;2022-09-09T00:21:57;2.15;;;1.50;;
8341;SDS011;4208;49.406;10.788;2022-09-09T00:24:35;2.72;;;1.48;;
8341;SDS011;4208;49.406;10.788;2022-09-09T00:27:11;2.05;;;1.13;;
8341;SDS011;4208;49.406;10.788;2022-09-09T00:29:51;3.15;;;1.20;;
8341;SDS011;4208;49.406;10.788;2022-09-09T00:32:24;2.55;;;1.42;;
8341;SDS011;4208;49.406;10.788;2022-09-09T00:34:58;3.22;;;1.67;;
8341;SDS011;4208;49.406;10.788;2022-09-09T00:37:32;3.15;;;1.67;;
8341;SDS011;4208;49.406;10.788;2022-09-09T00:40:04;3.10;;;1.25;;
8341;SDS011;4208;49.406;10.788;2022-09-09T00:42:44;2.15;;;1.40;;
8341;SDS011;4208;49.406;10.788;2022-09-09T00:45:18;4.50;;;1.45;;
8341;SDS011;4208;49.406;10.788;2022-09-09T00:48:00;5.57;;;1.67;;
8341;SDS011;4208;49.406;10.788;2022-09-09T00:50:38;3.63;;;1.50;;
8341;SDS011;4208;49.406;10.788;2022-09-09T00:53:24;3.20;;;1.60;;
8341;SDS011;4208;49.406;10.788;2022-09-09T00:56:03;3.83;;;1.65;;
8341;SDS011;4208;49.406;10.788;2022-09-09T00:58:40;3.00;;;1.67;;
8341;SDS011;4208;49.406;10.788;2022-09-09T01:01:11;4.15;;;2.00;;
8341;SDS011;4208;49.406;10.788;2022-09-09T01:03:43;3.00;;;1.70;;
8341;SDS011;4208;49.406;10.788;2022-09-09T01:06:15;3.42;;;1.80;;
8341;SDS011;4208;49.406;10.788;2022-09-09T01:08:58;3.25;;;1.90;;
8341;SDS011;4208;49.406;10.788;2022-09-09T01:11:37;2.83;;;1.80;;
8341;SDS011;4208;49.406;10.788;2022-09-09T01:14:19;2.05;;;1.55;;
8341;SDS011;4208;49.406;10.788;2022-09-09T01:16:55;4.18;;;1.80;;
8341;SDS011;4208;49.406;10.788;2022-09-09T01:19:33;2.45;;;1.60;;
8341;SDS011;4208;49.406;10.788;2022-09-09T01:22:19;4.63;;;2.00;;
8341;SDS011;4208;49.406;10.788;2022-09-09T01:25:06;3.55;;;1.52;;
8341;SDS011;4208;49.406;10.788;2022-09-09T01:27:58;3.72;;;1.50;;
8341;SDS011;4208;49.406;10.788;2022-09-09T01:30:30;2.13;;;1.60;;
8341;SDS011;4208;49.406;10.788;2022-09-09T01:33:02;4.05;;;2.03;;
8341;SDS011;4208;49.406;10.788;2022-09-09T01:35:35;2.90;;;2.58;;
8341;SDS011;4208;49.406;10.788;2022-09-09T01:38:11;6.50;;;3.17;;
8341;SDS011;4208;49.406;10.788;2022-09-09T01:40:41;4.50;;;2.20;;
8341;SDS011;4208;49.406;10.788;2022-09-09T01:43:12;5.97;;;2.03;;
8341;SDS011;4208;49.406;10.788;2022-09-09T01:45:41;2.38;;;1.70;;
8341;SDS011;4208;49.406;10.788;2022-09-09T01:48:12;3.05;;;1.70;;
8341;SDS011;4208;49.406;10.788;2022-09-09T01:50:50;3.42;;;1.75;;
8341;SDS011;4208;49.406;10.788;2022-09-09T01:53:20;2.58;;;1.42;;
8341;SDS011;4208;49.406;10.788;2022-09-09T01:55:53;3.67;;;1.70;;
8341;SDS011;4208;49.406;10.788;2022-09-09T01:58:36;3.58;;;1.60;;
8341;SDS011;4208;49.406;10.788;2022-09-09T02:01:15;4.63;;;1.45;;
8341;SDS011;4208;49.406;10.788;2022-09-09T02:03:52;1.98;;;1.50;;
8341;SDS011;4208;49.406;10.788;2022-09-09T02:06:26;2.60;;;1.77;;
8341;SDS011;4208;49.406;10.788;2022-09-09T02:09:06;2.70;;;1.80;;
8341;SDS011;4208;49.406;10.788;2022-09-09T02:11:40;2.83;;;1.70;;
8341;SDS011;4208;49.406;10.788;2022-09-09T02:14:21;4.10;;;1.80;;
8341;SDS011;4208;49.406;10.788;2022-09-09T02:16:56;3.42;;;1.48;;
8341;SDS011;4208;49.406;10.788;2022-09-09T02:19:39;3.53;;;1.98;;
8341;SDS011;4208;49.406;10.788;2022-09-09T02:22:25;2.45;;;1.60;;
8341;SDS011;4208;49.406;10.788;2022-09-09T02:24:56;4.03;;;1.80;;
8341;SDS011;4208;49.406;10.788;2022-09-09T02:27:29;4.70;;;2.15;;
8341;SDS011;4208;49.406;10.788;2022-09-09T02:29:59;3.92;;;1.70;;
8341;SDS011;4208;49.406;10.788;2022-09-09T02:32:44;2.63;;;1.85;;
8341;SDS011;4208;49.406;10.788;2022-09-09T02:35:17;3.08;;;1.65;;
8341;SDS011;4208;49.406;10.788;2022-09-09T02:37:49;2.72;;;1.60;;
8341;SDS011;4208;49.406;10.788;2022-09-09T02:40:20;2.70;;;1.60;;
8341;SDS011;4208;49.406;10.788;2022-09-09T02:42:56;3.17;;;1.75;;
8341;SDS011;4208;49.406;10.788;2022-09-09T02:45:31;3.60;;;1.60;;
8341;SDS011;4208;49.406;10.788;2022-09-09T02:48:08;4.88;;;1.88;;
8341;SDS011;4208;49.406;10.788;2022-09-09T02:50:45;2.72;;;1.58;;
8341;SDS011;4208;49.406;10.788;2022-09-09T02:53:27;3.25;;;1.60;;
8341;SDS011;4208;49.406;10.788;2022-09-09T02:56:08;3.88;;;1.70;;
8341;SDS011;4208;49.406;10.788;2022-09-09T02:58:42;2.78;;;1.60;;
8341;SDS011;4208;49.406;10.788;2022-09-09T03:01:14;3.58;;;1.88;;
8341;SDS011;4208;49.406;10.788;2022-09-09T03:03:44;2.78;;;1.63;;
8341;SDS011;4208;49.406;10.788;2022-09-09T03:06:15;5.22;;;1.65;;
8341;SDS011;4208;49.406;10.788;2022-09-09T03:08:49;3.17;;;1.40;;
8341;SDS011;4208;49.406;10.788;2022-09-09T03:11:23;2.95;;;1.90;;
8341;SDS011;4208;49.406;10.788;2022-09-09T03:13:52;3.80;;;1.70;;
8341;SDS011;4208;49.406;10.788;2022-09-09T03:16:25;3.00;;;2.05;;
8341;SDS011;4208;49.406;10.788;2022-09-09T03:18:54;2.05;;;1.77;;
8341;SDS011;4208;49.406;10.788;2022-09-09T03:21:23;3.88;;;1.90;;
8341;SDS011;4208;49.406;10.788;2022-09-09T03:23:51;3.13;;;1.80;;
8341;SDS011;4208;49.406;10.788;2022-09-09T03:26:20;4.20;;;1.50;;
8341;SDS011;4208;49.406;10.788;2022-09-09T03:28:49;5.28;;;1.80;;
8341;SDS011;4208;49.406;10.788;2022-09-09T03:31:21;4.47;;;1.60;;
8341;SDS011;4208;49.406;10.788;2022-09-09T03:33:52;5.28;;;1.95;;
8341;SDS011;4208;49.406;10.788;2022-09-09T03:36:21;3.53;;;1.73;;
8341;SDS011;4208;49.406;10.788;2022-09-09T03:38:49;3.63;;;1.77;;
8341;SDS011;4208;49.406;10.788;2022-09-09T03:41:18;3.03;;;1.90;;
8341;SDS011;4208;49.406;10.788;2022-09-09T03:43:47;3.35;;;1.80;;
8341;SDS011;4208;49.406;10.788;2022-09-09T03:46:16;4.72;;;2.10;;
8341;SDS011;4208;49.406;10.788;2022-09-09T03:48:45;3.20;;;1.95;;
8341;SDS011;4208;49.406;10.788;2022-09-09T03:51:16;3.38;;;1.80;;
8341;SDS011;4208;49.406;10.788;2022-09-09T03:53:46;3.45;;;1.80;;
8341;SDS011;4208;49.406;10.788;2022-09-09T03:56:15;3.65;;;1.95;;
8341;SDS011;4208;49.406;10.788;2022-09-09T03:58:45;3.33;;;1.95;;
8341;SDS011;4208;49.406;10.788;2022-09-09T04:01:14;4.00;;;1.80;;
8341;SDS011;4208;49.406;10.788;2022-09-09T04:03:45;2.38;;;1.70;;
8341;SDS011;4208;49.406;10.788;2022-09-09T04:06:15;5.38;;;3.15;;
8341;SDS011;4208;49.406;10.788;2022-09-09T04:08:48;5.30;;;2.80;;
8341;SDS011;4208;49.406;10.788;2022-09-09T04:11:19;6.40;;;3.40;;
8341;SDS011;4208;49.406;10.788;2022-09-09T04:13:50;13.85;;;8.13;;
8341;SDS011;4208;49.406;10.788;2022-09-09T04:16:19;16.02;;;9.15;;
8341;SDS011;4208;49.406;10.788;2022-09-09T04:18:48;10.88;;;7.38;;
8341;SDS011;4208;49.406;10.788;2022-09-09T04:21:18;6.30;;;4.57;;
8341;SDS011;4208;49.406;10.788;2022-09-09T04:23:48;9.00;;;5.70;;
8341;SDS011;4208;49.406;10.788;2022-09-09T04:26:18;5.60;;;3.40;;
8341;SDS011;4208;49.406;10.788;2022-09-09T04:28:47;5.03;;;2.40;;
8341;SDS011;4208;49.406;10.788;2022-09-09T04:31:19;4.43;;;2.63;;
8341;SDS011;4208;49.406;10.788;2022-09-09T04:33:53;6.68;;;3.53;;
8341;SDS011;4208;49.406;10.788;2022-09-09T04:36:23;7.82;;;3.80;;
8341;SDS011;4208;49.406;10.788;2022-09-09T04:38:57;6.82;;;3.08;;
8341;SDS011;4208;49.406;10.788;2022-09-09T04:41:26;4.78;;;3.13;;
8341;SDS011;4208;49.406;10.788;2022-09-09T04:43:54;7.13;;;3.42;;
8341;SDS011;4208;49.406;10.788;2022-09-09T04:46:23;5.40;;;2.65;;
8341;SDS011;4208;49.406;10.788;2022-09-09T04:48:52;4.13;;;2.80;;
8341;SDS011;4208;49.406;10.788;2022-09-09T04:51:28;6.32;;;2.88;;
8341;SDS011;4208;49.406;10.788;2022-09-09T04:53:58;3.47;;;2.50;;
8341;SDS011;4208;49.406;10.788;2022-09-09T04:56:26;3.38;;;2.38;;
8341;SDS011;4208;49.406;10.788;2022-09-09T04:58:57;3.63;;;2.10;;
8341;SDS011;4208;49.406;10.788;2022-09-09T05:01:36;3.05;;;2.00;;
8341;SDS011;4208;49.406;10.788;2022-09-09T05:04:05;3.50;;;1.98;;
8341;SDS011;4208;49.406;10.788;2022-09-09T05:06:35;3.08;;;2.20;;
8341;SDS011;4208;49.406;10.788;2022-09-09T05:09:05;7.55;;;3.47;;
8341;SDS011;4208;49.406;10.788;2022-09-09T05:11:33;4.70;;;2.55;;
8341;SDS011;4208;49.406;10.788;2022-09-09T05:14:22;3.97;;;2.45;;
8341;SDS011;4208;49.406;10.788;2022-09-09T05:16:51;3.92;;;2.33;;
8341;SDS011;4208;49.406;10.788;2022-09-09T05:19:21;4.95;;;2.30;;
8341;SDS011;4208;49.406;10.788;2022-09-09T05:21:53;10.00;;;6.57;;
8341;SDS011;4208;49.406;10.788;2022-09-09T05:24:29;7.00;;;3.55;;
8341;SDS011;4208;49.406;10.788;2022-09-09T05:27:00;15.65;;;9.25;;
8341;SDS011;4208;49.406;10.788;2022-09-09T05:29:29;10.90;;;4.95;;
8341;SDS011;4208;49.406;10.788;2022-09-09T05:32:02;14.52;;;9.05;;
8341;SDS011;4208;49.406;10.788;2022-09-09T05:34:32;9.82;;;5.35;;
8341;SDS011;4208;49.406;10.788;2022-09-09T05:37:02;6.32;;;2.60;;
8341;SDS011;4208;49.406;10.788;2022-09-09T05:39:32;5.30;;;3.20;;
8341;SDS011;4208;49.406;10.788;2022-09-09T05:42:01;15.70;;;9.35;;
8341;SDS011;4208;49.406;10.788;2022-09-09T05:44:32;6.88;;;4.10;;
8341;SDS011;4208;49.406;10.788;2022-09-09T05:47:01;6.10;;;2.97;;
8341;SDS011;4208;49.406;10.788;2022-09-09T05:49:30;10.48;;;3.80;;
8341;SDS011;4208;49.406;10.788;2022-09-09T05:51:59;12.82;;;7.13;;
8341;SDS011;4208;49.406;10.788;2022-09-09T05:54:31;8.27;;;3.55;;
8341;SDS011;4208;49.406;10.788;2022-09-09T05:57:00;8.75;;;4.10;;
8341;SDS011;4208;49.406;10.788;2022-09-09T05:59:29;6.95;;;3.55;;
8341;SDS011;4208;49.406;10.788;2022-09-09T06:01:59;7.72;;;3.15;;
8341;SDS011;4208;49.406;10.788;2022-09-09T06:04:33;5.55;;;2.90;;
8341;SDS011;4208;49.406;10.788;2022-09-09T06:07:04;7.47;;;3.10;;
8341;SDS011;4208;49.406;10.788;2022-09-09T06:09:34;4.85;;;3.13;;
8341;SDS011;4208;49.406;10.788;2022-09-09T06:12:03;5.93;;;2.95;;
8341;SDS011;4208;49.406;10.788;2022-09-09T06:14:35;9.18;;;3.63;;
8341;SDS011;4208;49.406;10.788;2022-09-09T06:17:09;9.10;;;4.80;;
8341;SDS011;4208;49.406;10.788;2022-09-09T06:19:37;49.25;;;8.38;;
8341;SDS011;4208;49.406;10.788;2022-09-09T06:22:06;13.48;;;3.67;;
8341;SDS011;4208;49.406;10.788;2022-09-09T06:24:41;7.97;;;2.92;;
8341;SDS011;4208;49.406;10.788;2022-09-09T06:27:11;14.55;;;7.53;;
8341;SDS011;4208;49.406;10.788;2022-09-09T06:29:41;14.50;;;6.95;;
8341;SDS011;4208;49.406;10.788;2022-09-09T06:32:10;12.15;;;5.75;;
8341;SDS011;4208;49.406;10.788;2022-09-09T06:34:39;8.13;;;6.57;;
8341;SDS011;4208;49.406;10.788;2022-09-09T06:37:09;8.70;;;5.00;;
8341;SDS011;4208;49.406;10.788;2022-09-09T06:39:44;4.22;;;3.30;;
8341;SDS011;4208;49.406;10.788;2022-09-09T06:42:13;20.15;;;11.57;;
8341;SDS011;4208;49.406;10.788;2022-09-09T06:44:54;11.52;;;6.88;;
8341;SDS011;4208;49.406;10.788;2022-09-09T06:47:41;7.25;;;3.53;;
8341;SDS011;4208;49.406;10.788;2022-09-09T06:50:10;8.20;;;3.90;;
8341;SDS011;4208;49.406;10.788;2022-09-09T06:52:39;11.48;;;6.45;;
8341;SDS011;4208;49.406;10.788;2022-09-09T06:55:10;9.55;;;6.70;;
8341;SDS011;4208;49.406;10.788;2022-09-09T06:57:40;9.18;;;3.78;;
8341;SDS011;4208;49.406;10.788;2022-09-09T07:00:14;13.68;;;4.30;;
8341;SDS011;4208;49.406;10.788;2022-09-09T07:02:43;16.70;;;4.45;;
8341;SDS011;4208;49.406;10.788;2022-09-09T07:05:13;9.70;;;2.95;;
8341;SDS011;4208;49.406;10.788;2022-09-09T07:07:44;8.50;;;3.28;;
8341;SDS011;4208;49.406;10.788;2022-09-09T07:10:16;9.65;;;4.07;;
8341;SDS011;4208;49.406;10.788;2022-09-09T07:12:45;6.32;;;3.20;;
8341;SDS011;4208;49.406;10.788;2022-09-09T07:15:20;7.32;;;2.75;;
8341;SDS011;4208;49.406;10.788;2022-09-09T07:17:50;10.02;;;2.38;;
8341;SDS011;4208;49.406;10.788;2022-09-09T07:20:21;5.55;;;2.17;;
8341;SDS011;4208;49.406;10.788;2022-09-09T07:22:54;3.72;;;1.75;;
8341;SDS011;4208;49.406;10.788;2022-09-09T07:25:24;3.38;;;1.90;;
8341;SDS011;4208;49.406;10.788;2022-09-09T07:27:55;3.30;;;1.92;;
8341;SDS011;4208;49.406;10.788;2022-09-09T07:30:25;3.10;;;1.75;;
8341;SDS011;4208;49.406;10.788;2022-09-09T07:32:55;3.53;;;1.58;;
8341;SDS011;4208;49.406;10.788;2022-09-09T07:35:25;5.72;;;1.63;;
8341;SDS011;4208;49.406;10.788;2022-09-09T07:37:54;2.75;;;1.48;;
8341;SDS011;4208;49.406;10.788;2022-09-09T07:40:25;7.00;;;1.70;;
8341;SDS011;4208;49.406;10.788;2022-09-09T07:42:54;6.45;;;1.55;;
8341;SDS011;4208;49.406;10.788;2022-09-09T07:45:23;3.60;;;1.10;;
8341;SDS011;4208;49.406;10.788;2022-09-09T07:47:51;2.72;;;0.93;;
8341;SDS011;4208;49.406;10.788;2022-09-09T07:50:20;2.42;;;1.40;;
8341;SDS011;4208;49.406;10.788;2022-09-09T07:52:51;4.28;;;1.13;;
8341;SDS011;4208;49.406;10.788;2022-09-09T07:55:20;2.55;;;1.08;;
8341;SDS011;4208;49.406;10.788;2022-09-09T07:57:53;3.40;;;1.00;;
8341;SDS011;4208;49.406;10.788;2022-09-09T08:00:24;2.50;;;1.00;;
8341;SDS011;4208;49.406;10.788;2022-09-09T08:02:56;1.40;;;0.82;;
8341;SDS011;4208;49.406;10.788;2022-09-09T08:05:25;2.92;;;1.10;;
8341;SDS011;4208;49.406;10.788;2022-09-09T08:07:55;2.15;;;0.82;;
8341;SDS011;4208;49.406;10.788;2022-09-09T08:10:24;3.25;;;0.80;;
8341;SDS011;4208;49.406;10.788;2022-09-09T08:12:55;3.50;;;1.00;;
8341;SDS011;4208;49.406;10.788;2022-09-09T08:15:44;3.88;;;0.98;;
8341;SDS011;4208;49.406;10.788;2022-09-09T08:18:13;3.60;;;0.90;;
8341;SDS011;4208;49.406;10.788;2022-09-09T08:20:43;4.10;;;0.90;;
8341;SDS011;4208;49.406;10.788;2022-09-09T08:23:12;2.13;;;0.90;;
8341;SDS011;4208;49.406;10.788;2022-09-09T08:25:40;4.30;;;0.90;;
8341;SDS011;4208;49.406;10.788;2022-09-09T08:28:10;2.15;;;0.70;;
8341;SDS011;4208;49.406;10.788;2022-09-09T08:30:39;3.03;;;0.70;;
8341;SDS011;4208;49.406;10.788;2022-09-09T08:33:08;3.83;;;0.80;;
8341;SDS011;4208;49.406;10.788;2022-09-09T08:35:37;3.63;;;1.20;;
8341;SDS011;4208;49.406;10.788;2022-09-09T08:38:06;1.98;;;0.90;;
8341;SDS011;4208;49.406;10.788;2022-09-09T08:40:38;2.67;;;1.05;;
8341;SDS011;4208;49.406;10.788;2022-09-09T08:43:17;2.88;;;0.90;;
8341;SDS011;4208;49.406;10.788;2022-09-09T08:45:50;3.17;;;0.88;;
8341;SDS011;4208;49.406;10.788;2022-09-09T08:48:32;4.05;;;1.20;;
8341;SDS011;4208;49.406;10.788;2022-09-09T08:51:11;6.55;;;0.95;;
8341;SDS011;4208;49.406;10.788;2022-09-09T08:53:43;4.47;;;0.80;;
8341;SDS011;4208;49.406;10.788;2022-09-09T08:56:18;3.00;;;0.90;;
8341;SDS011;4208;49.406;10.788;2022-09-09T08:58:54;4.30;;;0.82;;
8341;SDS011;4208;49.406;10.788;2022-09-09T09:01:44;2.80;;;0.85;;
8341;SDS011;4208;49.406;10.788;2022-09-09T09:04:30;4.53;;;1.00;;
8341;SDS011;4208;49.406;10.788;2022-09-09T09:07:11;3.78;;;0.77;;
8341;SDS011;4208;49.406;10.788;2022-09-09T09:09:52;2.88;;;1.00;;
8341;SDS011;4208;49.406;10.788;2022-09-09T09:12:39;2.80;;;0.90;;
8341;SDS011;4208;49.406;10.788;2022-09-09T09:15:16;4.13;;;0.73;;
8341;SDS011;4208;49.406;10.788;2022-09-09T09:17:49;3.03;;;0.77;;
8341;SDS011;4208;49.406;10.788;2022-09-09T09:20:20;3.72;;;0.80;;
8341;SDS011;4208;49.406;10.788;2022-09-09T09:22:56;6.35;;;1.40;;
8341;SDS011;4208;49.406;10.788;2022-09-09T09:25:31;7.50;;;0.88;;
8341;SDS011;4208;49.406;10.788;2022-09-09T09:28:10;2.70;;;0.80;;
8341;SDS011;4208;49.406;10.788;2022-09-09T09:30:49;3.67;;;0.70;;
8341;SDS011;4208;49.406;10.788;2022-09-09T09:33:23;3.50;;;0.93;;
8341;SDS011;4208;49.406;10.788;2022-09-09T09:35:56;4.68;;;0.70;;
8341;SDS011;4208;49.406;10.788;2022-09-09T09:38:28;2.95;;;1.02;;
8341;SDS011;4208;49.406;10.788;2022-09-09T09:41:17;3.42;;;1.02;;
8341;SDS011;4208;49.406;10.788;2022-09-09T09:43:57;4.28;;;1.10;;
8341;SDS011;4208;49.406;10.788;2022-09-09T09:46:29;3.30;;;0.88;;
8341;SDS011;4208;49.406;10.788;2022-09-09T09:49:09;3.03;;;0.90;;
8341;SDS011;4208;49.406;10.788;2022-09-09T09:51:39;3.97;;;1.00;;
8341;SDS011;4208;49.406;10.788;2022-09-09T09:54:09;3.85;;;1.00;;
8341;SDS011;4208;49.406;10.788;2022-09-09T09:56:51;3.70;;;1.20;;
8341;SDS011;4208;49.406;10.788;2022-09-09T09:59:21;5.45;;;0.90;;
8341;SDS011;4208;49.406;10.788;2022-09-09T10:02:19;4.35;;;1.00;;
8341;SDS011;4208;49.406;10.788;2022-09-09T10:05:00;4.22;;;1.70;;
8341;SDS011;4208;49.406;10.788;2022-09-09T10:07:32;4.35;;;1.13;;
8341;SDS011;4208;49.406;10.788;2022-09-09T10:10:01;4.20;;;1.40;;
8341;SDS011;4208;49.406;10.788;2022-09-09T10:12:33;2.00;;;0.90;;
8341;SDS011;4208;49.406;10.788;2022-09-09T10:15:22;6.18;;;1.00;;
8341;SDS011;4208;49.406;10.788;2022-09-09T10:18:04;3.45;;;1.00;;
8341;SDS011;4208;49.406;10.788;2022-09-09T10:20:50;5.57;;;1.40;;
8341;SDS011;4208;49.406;10.788;2022-09-09T10:23:29;2.92;;;0.80;;
8341;SDS011;4208;49.406;10.788;2022-09-09T10:26:13;4.38;;;1.75;;
8341;SDS011;4208;49.406;10.788;2022-09-09T10:29:00;4.43;;;1.10;;
8341;SDS011;4208;49.406;10.788;2022-09-09T10:31:41;5.07;;;1.52;;
8341;SDS011;4208;49.406;10.788;2022-09-09T10:34:24;3.45;;;1.13;;
8341;SDS011;4208;49.406;10.788;2022-09-09T10:37:11;5.13;;;0.93;;
8341;SDS011;4208;49.406;10.788;2022-09-09T10:39:49;2.95;;;0.90;;
8341;SDS011;4208;49.406;10.788;2022-09-09T10:42:26;3.33;;;0.80;;
8341;SDS011;4208;49.406;10.788;2022-09-09T10:45:02;5.10;;;1.30;;
8341;SDS011;4208;49.406;10.788;2022-09-09T10:47:54;2.00;;;0.77;;
8341;SDS011;4208;49.406;10.788;2022-09-09T10:53:34;3.78;;;0.88;;
8341;SDS011;4208;49.406;10.788;2022-09-09T10:56:06;3.25;;;0.80;;
8341;SDS011;4208;49.406;10.788;2022-09-09T10:58:38;3.08;;;0.98;;
8341;SDS011;4208;49.406;10.788;2022-09-09T11:01:14;2.38;;;0.98;;
8341;SDS011;4208;49.406;10.788;2022-09-09T11:03:49;4.03;;;1.10;;
8341;SDS011;4208;49.406;10.788;2022-09-09T11:06:27;3.80;;;1.17;;
8341;SDS011;4208;49.406;10.788;2022-09-09T11:09:00;2.15;;;1.08;;
8341;SDS011;4208;49.406;10.788;2022-09-09T11:11:32;3.85;;;1.17;;
8341;SDS011;4208;49.406;10.788;2022-09-09T11:14:09;2.75;;;0.93;;
8341;SDS011;4208;49.406;10.788;2022-09-09T11:16:45;3.83;;;0.77;;
8341;SDS011;4208;49.406;10.788;2022-09-09T11:19:20;5.28;;;1.10;;
8341;SDS011;4208;49.406;10.788;2022-09-09T11:21:56;4.10;;;1.02;;
8341;SDS011;4208;49.406;10.788;2022-09-09T11:24:27;2.92;;;0.98;;
8341;SDS011;4208;49.406;10.788;2022-09-09T11:27:00;3.63;;;0.93;;
8341;SDS011;4208;49.406;10.788;2022-09-09T11:29:45;7.32;;;1.00;;
8341;SDS011;4208;49.406;10.788;2022-09-09T11:32:47;3.17;;;0.80;;
8341;SDS011;4208;49.406;10.788;2022-09-09T11:35:45;3.08;;;1.10;;
8341;SDS011;4208;49.406;10.788;2022-09-09T11:38:26;3.88;;;1.00;;
8341;SDS011;4208;49.406;10.788;2022-09-09T11:40:57;1.65;;;0.80;;
8341;SDS011;4208;49.406;10.788;2022-09-09T11:43:28;3.17;;;1.08;;
8341;SDS011;4208;49.406;10.788;2022-09-09T11:46:00;2.95;;;0.80;;
8341;SDS011;4208;49.406;10.788;2022-09-09T11:48:34;2.10;;;0.85;;
8341;SDS011;4208;49.406;10.788;2022-09-09T11:51:05;5.00;;;1.08;;
8341;SDS011;4208;49.406;10.788;2022-09-09T11:53:51;2.35;;;0.88;;
8341;SDS011;4208;49.406;10.788;2022-09-09T11:56:24;3.00;;;0.82;;
8341;SDS011;4208;49.406;10.788;2022-09-09T11:58:56;3.95;;;0.90;;
8341;SDS011;4208;49.406;10.788;2022-09-09T12:01:28;2.15;;;0.70;;
8341;SDS011;4208;49.406;10.788;2022-09-09T12:04:14;1.48;;;0.77;;
8341;SDS011;4208;49.406;10.788;2022-09-09T12:06:56;3.30;;;1.23;;
8341;SDS011;4208;49.406;10.788;2022-09-09T12:09:33;4.97;;;1.08;;
8341;SDS011;4208;49.406;10.788;2022-09-09T12:12:24;2.10;;;0.80;;
8341;SDS011;4208;49.406;10.788;2022-09-09T12:14:59;2.78;;;0.98;;
8341;SDS011;4208;49.406;10.788;2022-09-09T12:17:31;1.73;;;0.80;;
8341;SDS011;4208;49.406;10.788;2022-09-09T12:20:11;3.83;;;1.05;;
8341;SDS011;4208;49.406;10.788;2022-09-09T12:22:45;2.90;;;0.90;;
8341;SDS011;4208;49.406;10.788;2022-09-09T12:25:33;3.20;;;0.82;;
8341;SDS011;4208;49.406;10.788;2022-09-09T12:28:15;1.88;;;0.90;;
8341;SDS011;4208;49.406;10.788;2022-09-09T12:30:48;3.58;;;1.08;;
8341;SDS011;4208;49.406;10.788;2022-09-09T12:33:25;3.13;;;0.90;;
8341;SDS011;4208;49.406;10.788;2022-09-09T12:36:02;3.60;;;0.88;;
8341;SDS011;4208;49.406;10.788;2022-09-09T12:38:34;3.80;;;1.20;;
8341;SDS011;4208;49.406;10.788;2022-09-09T12:41:06;12.00;;;1.40;;
8341;SDS011;4208;49.406;10.788;2022-09-09T12:43:47;5.30;;;1.40;;
8341;SDS011;4208;49.406;10.788;2022-09-09T12:46:20;6.82;;;1.80;;
8341;SDS011;4208;49.406;10.788;2022-09-09T12:48:55;5.60;;;1.20;;
8341;SDS011;4208;49.406;10.788;2022-09-09T12:51:24;7.40;;;1.35;;
8341;SDS011;4208;49.406;10.788;2022-09-09T12:53:56;3.80;;;1.10;;
8341;SDS011;4208;49.406;10.788;2022-09-09T12:56:28;5.32;;;2.17;;
8341;SDS011;4208;49.406;10.788;2022-09-09T12:58:59;5.70;;;1.73;;
8341;SDS011;4208;49.406;10.788;2022-09-09T13:01:28;3.60;;;0.90;;
8341;SDS011;4208;49.406;10.788;2022-09-09T13:03:59;5.13;;;1.63;;
8341;SDS011;4208;49.406;10.788;2022-09-09T13:06:29;4.43;;;1.20;;
8341;SDS011;4208;49.406;10.788;2022-09-09T13:09:00;3.85;;;1.17;;
8341;SDS011;4208;49.406;10.788;2022-09-09T13:11:33;2.20;;;0.82;;
8341;SDS011;4208;49.406;10.788;2022-09-09T13:14:12;3.78;;;1.02;;
8341;SDS011;4208;49.406;10.788;2022-09-09T13:16:54;2.65;;;0.90;;
8341;SDS011;4208;49.406;10.788;2022-09-09T13:19:24;2.45;;;0.60;;
8341;SDS011;4208;49.406;10.788;2022-09-09T13:21:55;1.77;;;0.60;;
8341;SDS011;4208;49.406;10.788;2022-09-09T13:24:29;1.77;;;0.57;;
8341;SDS011;4208;49.406;10.788;2022-09-09T13:27:02;3.85;;;0.98;;
8341;SDS011;4208;49.406;10.788;2022-09-09T13:29:32;3.83;;;1.00;;
8341;SDS011;4208;49.406;10.788;2022-09-09T13:32:04;5.05;;;0.90;;
8341;SDS011;4208;49.406;10.788;2022-09-09T13:34:35;2.72;;;1.00;;
8341;SDS011;4208;49.406;10.788;2022-09-09T13:37:05;6.95;;;1.05;;
8341;SDS011;4208;49.406;10.788;2022-09-09T13:39:35;3.88;;;1.02;;
8341;SDS011;4208;49.406;10.788;2022-09-09T13:42:19;13.18;;;1.25;;
8341;SDS011;4208;49.406;10.788;2022-09-09T13:44:53;6.50;;;1.23;;
8341;SDS011;4208;49.406;10.788;2022-09-09T13:47:27;9.65;;;1.80;;
8341;SDS011;4208;49.406;10.788;2022-09-09T13:49:58;2.83;;;1.00;;
8341;SDS011;4208;49.406;10.788;2022-09-09T13:52:37;4.30;;;1.08;;
8341;SDS011;4208;49.406;10.788;2022-09-09T13:55:07;19.08;;;2.33;;
8341;SDS011;4208;49.406;10.788;2022-09-09T13:57:38;3.90;;;1.08;;
8341;SDS011;4208;49.406;10.788;2022-09-09T14:00:09;6.05;;;1.10;;
8341;SDS011;4208;49.406;10.788;2022-09-09T14:02:39;4.60;;;1.00;;
8341;SDS011;4208;49.406;10.788;2022-09-09T14:05:08;4.93;;;0.82;;
8341;SDS011;4208;49.406;10.788;2022-09-09T14:07:37;3.28;;;1.00;;
8341;SDS011;4208;49.406;10.788;2022-09-09T14:10:07;4.13;;;1.00;;
8341;SDS011;4208;49.406;10.788;2022-09-09T14:12:36;5.55;;;1.17;;
8341;SDS011;4208;49.406;10.788;2022-09-09T14:15:07;7.03;;;1.20;;
8341;SDS011;4208;49.406;10.788;2022-09-09T14:17:38;2.75;;;1.30;;
8341;SDS011;4208;49.406;10.788;2022-09-09T14:20:07;6.68;;;1.42;;
8341;SDS011;4208;49.406;10.788;2022-09-09T14:22:37;4.50;;;1.00;;
8341;SDS011;4208;49.406;10.788;2022-09-09T14:25:06;3.47;;;0.93;;
8341;SDS011;4208;49.406;10.788;2022-09-09T14:27:36;3.97;;;1.27;;
8341;SDS011;4208;49.406;10.788;2022-09-09T14:30:08;4.55;;;1.00;;
8341;SDS011;4208;49.406;10.788;2022-09-09T14:32:38;4.30;;;0.85;;
8341;SDS011;4208;49.406;10.788;2022-09-09T14:35:06;3.13;;;0.88;;
8341;SDS011;4208;49.406;10.788;2022-09-09T14:37:36;2.42;;;0.90;;
8341;SDS011;4208;49.406;10.788;2022-09-09T14:40:06;2.80;;;0.82;;
8341;SDS011;4208;49.406;10.788;2022-09-09T14:42:35;1.75;;;0.52;;
8341;SDS011;4208;49.406;10.788;2022-09-09T14:45:04;3.38;;;0.80;;
8341;SDS011;4208;49.406;10.788;2022-09-09T14:47:35;4.82;;;1.00;;
8341;SDS011;4208;49.406;10.788;2022-09-09T14:50:05;9.10;;;1.10;;
8341;SDS011;4208;49.406;10.788;2022-09-09T14:52:34;2.20;;;0.68;;
8341;SDS011;4208;49.406;10.788;2022-09-09T14:55:04;3.80;;;0.70;;
8341;SDS011;4208;49.406;10.788;2022-09-09T14:57:34;10.02;;;1.35;;
8341;SDS011;4208;49.406;10.788;2022-09-09T15:00:03;4.38;;;0.90;;
8341;SDS011;4208;49.406;10.788;2022-09-09T15:02:33;5.18;;;1.25;;
8341;SDS011;4208;49.406;10.788;2022-09-09T15:05:03;3.38;;;1.40;;
8341;SDS011;4208;49.406;10.788;2022-09-09T15:07:32;1.95;;;1.00;;
8341;SDS011;4208;49.406;10.788;2022-09-09T15:10:02;3.75;;;1.10;;
8341;SDS011;4208;49.406;10.788;2022-09-09T15:12:31;2.38;;;0.60;;
8341;SDS011;4208;49.406;10.788;2022-09-09T15:15:02;2.33;;;0.70;;
8341;SDS011;4208;49.406;10.788;2022-09-09T15:17:31;1.75;;;0.63;;
8341;SDS011;4208;49.406;10.788;2022-09-09T15:20:00;0.73;;;0.50;;
8341;SDS011;4208;49.406;10.788;2022-09-09T15:22:31;1.20;;;0.40;;
8341;SDS011;4208;49.406;10.788;2022-09-09T15:25:00;1.60;;;0.60;;
8341;SDS011;4208;49.406;10.788;2022-09-09T15:27:29;1.42;;;0.40;;
8341;SDS011;4208;49.406;10.788;2022-09-09T15:29:58;1.05;;;0.50;;
8341;SDS011;4208;49.406;10.788;2022-09-09T15:32:27;2.05;;;0.70;;
8341;SDS011;4208;49.406;10.788;2022-09-09T15:34:57;2.55;;;0.60;;
8341;SDS011;4208;49.406;10.788;2022-09-09T15:37:25;1.75;;;0.40;;
8341;SDS011;4208;49.406;10.788;2022-09-09T15:39:55;1.25;;;0.45;;
8341;SDS011;4208;49.406;10.788;2022-09-09T15:42:26;1.58;;;0.50;;